< < Back
Terminal Aerodrome Forecast


Current Version              Previous Versions:   1  2  3  4  5  6  7  8  9  

Terminal Aerodrome Forecast

489
FTUS42 KFFC 270158 AAB
TAFPDK
TAF AMD
KPDK 270158Z 2702/2724 17006KT P6SM VCSH SCT060
     FM270900 15004KT P6SM SCT040 BKN120
     FM271500 15004KT P6SM BKN050=

Latest METAR

775
SAUS70 KWBC 271000 RRF
MTRPDK
METAR KPDK 270953Z AUTO 16003KT 10SM CLR 21/17 A3010 RMK AO2 SLP175
T02060167


USA.gov is the U.S. government's official web portal to all federal, state and local government web resources and services.